Time;durP1;ratioP1;P1;durP2;ratioP2;P2;SDS_P1;SDS_P2;PMS_P1;PMS_P2;Temp;Humidity;BMP_temperature;BMP_pressure;BME280_temperature;BME280_humidity;BME280_pressure;Samples;Min_cycle;Max_cycle;Signal;HPM_P1;HPM_P2
2023/05/29 00:00:38;;;;;;;;;;;;;;;20.47;nan;102083.59;5045793;28;19923;-84
2023/05/29 00:03:05;;;;;;;;;;;;;;;20.43;nan;102079.78;5039239;28;20098;-83
2023/05/29 00:05:30;;;;;;;;;;;;;;;20.37;nan;102084.44;5047654;28;20400;-84
2023/05/29 00:07:55;;;;;;;;;;;;;;;20.34;nan;102079.56;5049621;28;19916;-84
2023/05/29 00:10:21;;;;;;;;;;;;;;;20.33;nan;102088.00;5044270;28;20133;-84
2023/05/29 00:12:46;;;;;;;;;;;;;;;20.27;nan;102089.91;5044019;28;19978;-84
2023/05/29 00:15:12;;;;;;;;;;;;;;;20.20;nan;102090.25;5043206;28;20400;-84
2023/05/29 00:17:37;;;;;;;;;;;;;;;20.15;nan;102098.44;5045628;28;19921;-84
2023/05/29 00:20:08;;;;;;;;;;;;;;;20.07;nan;102103.63;5046773;28;19928;-84
2023/05/29 00:22:33;;;;;;;;;;;;;;;20.00;nan;102100.41;5043689;28;19916;-84
2023/05/29 00:24:59;;;;;;;;;;;;;;;19.92;nan;102093.63;5040167;28;20419;-83
2023/05/29 00:27:24;;;;;;;;;;;;;;;19.88;nan;102092.56;5047931;28;19927;-84
2023/05/29 00:29:49;;;;;;;;;;;;;;;19.85;nan;102095.84;5043439;28;19924;-83
2023/05/29 00:32:15;;;;;;;;;;;;;;;19.79;nan;102099.66;5048422;28;20407;-84
2023/05/29 00:34:40;;;;;;;;;;;;;;;19.71;nan;102102.94;5043757;28;19920;-84
2023/05/29 00:37:06;;;;;;;;;;;;;;;19.65;nan;102099.44;5043653;28;19925;-84
2023/05/29 00:39:31;;;;;;;;;;;;;;;19.60;nan;102108.44;5045920;28;19917;-84
2023/05/29 00:41:57;;;;;;;;;;;;;;;19.57;nan;102108.97;5048179;28;19948;-84
2023/05/29 00:44:22;;;;;;;;;;;;;;;19.52;nan;102106.22;5045837;28;19924;-83
2023/05/29 00:46:52;;;;;;;;;;;;;;;19.47;nan;102102.72;5045541;28;19916;-84
2023/05/29 00:49:18;;;;;;;;;;;;;;;19.43;nan;102099.72;5043324;28;19935;-84
2023/05/29 00:51:44;;;;;;;;;;;;;;;19.41;nan;102103.81;5037729;28;19920;-83
2023/05/29 00:54:11;;;;;;;;;;;;;;;19.36;nan;102107.34;5042521;28;19921;-84
2023/05/29 00:56:38;;;;;;;;;;;;;;;19.30;nan;102108.44;5043214;28;19920;-84
2023/05/29 00:59:03;;;;;;;;;;;;;;;19.26;nan;102113.63;5043240;28;19924;-84
2023/05/29 01:01:31;;;;;;;;;;;;;;;19.23;nan;102105.19;5045129;28;20292;-84
2023/05/29 01:03:57;;;;;;;;;;;;;;;19.19;nan;102106.81;5047303;28;20342;-84
2023/05/29 01:06:22;;;;;;;;;;;;;;;19.14;nan;102114.97;5046509;28;19924;-84
2023/05/29 01:08:48;;;;;;;;;;;;;;;19.10;nan;102114.69;5045459;28;19917;-83
2023/05/29 01:11:16;;;;;;;;;;;;;;;19.07;nan;102119.88;5047812;28;19925;-84
2023/05/29 01:13:44;;;;;;;;;;;;;;;19.02;nan;102120.66;5047398;28;20182;-84
2023/05/29 01:16:16;;;;;;;;;;;;;;;18.96;nan;102125.28;5046586;28;20372;-84
2023/05/29 01:18:46;;;;;;;;;;;;;;;18.90;nan;102131.00;5048229;28;20422;-84
2023/05/29 01:21:30;;;;;;;;;;;;;;;18.85;nan;102129.09;5045366;28;19963;-84
2023/05/29 01:24:08;;;;;;;;;;;;;;;18.79;nan;102122.00;5053443;28;20016;-84
2023/05/29 01:26:33;;;;;;;;;;;;;;;18.72;nan;102126.91;5045244;28;19917;-84
2023/05/29 01:29:00;;;;;;;;;;;;;;;18.68;nan;102129.34;5043328;28;19921;-83
2023/05/29 01:31:26;;;;;;;;;;;;;;;18.66;nan;102126.06;5047450;28;20399;-84
2023/05/29 01:33:52;;;;;;;;;;;;;;;18.62;nan;102126.84;5048846;28;19931;-84
2023/05/29 01:36:18;;;;;;;;;;;;;;;18.56;nan;102127.91;5044199;28;19929;-83
2023/05/29 01:38:43;;;;;;;;;;;;;;;18.51;nan;102133.34;5044199;28;20300;-84
2023/05/29 01:41:09;;;;;;;;;;;;;;;18.43;nan;102132.75;5047991;28;20327;-83
2023/05/29 01:43:34;;;;;;;;;;;;;;;18.38;nan;102127.31;5044030;28;20067;-84
2023/05/29 01:46:00;;;;;;;;;;;;;;;18.33;nan;102130.03;5048201;28;20299;-84
2023/05/29 01:48:26;;;;;;;;;;;;;;;18.27;nan;102133.78;5047922;28;19928;-83
2023/05/29 01:50:52;;;;;;;;;;;;;;;18.26;nan;102131.34;5042937;28;20079;-84
2023/05/29 01:53:17;;;;;;;;;;;;;;;18.24;nan;102123.47;5045973;28;19938;-84
2023/05/29 01:55:43;;;;;;;;;;;;;;;18.22;nan;102133.78;5047270;28;19979;-83
2023/05/29 01:58:08;;;;;;;;;;;;;;;18.20;nan;102125.09;5044900;28;19978;-84
2023/05/29 02:00:34;;;;;;;;;;;;;;;18.18;nan;102126.44;5043688;28;19931;-84
2023/05/29 02:03:00;;;;;;;;;;;;;;;18.14;nan;102126.16;5044632;28;19917;-83
2023/05/29 02:05:25;;;;;;;;;;;;;;;18.10;nan;102119.63;5048381;28;19974;-83
2023/05/29 02:07:51;;;;;;;;;;;;;;;18.05;nan;102125.84;5043975;28;19917;-83
2023/05/29 02:10:16;;;;;;;;;;;;;;;17.97;nan;102128.25;5045603;28;21396;-84
2023/05/29 02:12:41;;;;;;;;;;;;;;;17.92;nan;102128.22;5045624;28;20022;-84
2023/05/29 02:15:07;;;;;;;;;;;;;;;17.87;nan;102134.44;5048245;28;20008;-84
2023/05/29 02:17:33;;;;;;;;;;;;;;;17.84;nan;102132.25;5043480;28;20411;-84
2023/05/29 02:19:59;;;;;;;;;;;;;;;17.80;nan;102137.38;5049141;28;19939;-83
2023/05/29 02:22:24;;;;;;;;;;;;;;;17.80;nan;102133.88;5040887;28;20424;-83
2023/05/29 02:24:49;;;;;;;;;;;;;;;17.79;nan;102135.75;5048193;28;20399;-84
2023/05/29 02:27:14;;;;;;;;;;;;;;;17.77;nan;102135.22;5044444;28;20412;-84
2023/05/29 02:29:40;;;;;;;;;;;;;;;17.73;nan;102133.25;5047679;28;20388;-83
2023/05/29 02:32:05;;;;;;;;;;;;;;;17.72;nan;102135.16;5044820;28;20031;-83
2023/05/29 02:34:30;;;;;;;;;;;;;;;17.73;nan;102135.97;5046812;28;20003;-83
2023/05/29 02:36:56;;;;;;;;;;;;;;;17.74;nan;102138.41;5045533;28;20723;-84
2023/05/29 02:39:21;;;;;;;;;;;;;;;17.74;nan;102140.31;5043671;28;20058;-84
2023/05/29 02:41:47;;;;;;;;;;;;;;;17.72;nan;102135.16;5046092;28;19916;-84
2023/05/29 02:44:12;;;;;;;;;;;;;;;17.71;nan;102130.81;5044791;28;19917;-84
2023/05/29 02:46:37;;;;;;;;;;;;;;;17.67;nan;102124.25;5044078;28;19931;-84
2023/05/29 02:49:03;;;;;;;;;;;;;;;17.61;nan;102127.22;5046430;28;19921;-83
2023/05/29 02:51:28;;;;;;;;;;;;;;;17.57;nan;102126.91;5046216;28;20435;-84
2023/05/29 02:53:54;;;;;;;;;;;;;;;17.55;nan;102131.75;5045142;28;19998;-84
2023/05/29 02:56:23;;;;;;;;;;;;;;;17.51;nan;102128.75;5047318;28;19927;-83
2023/05/29 02:58:49;;;;;;;;;;;;;;;17.49;nan;102135.53;5049813;28;19917;-84
2023/05/29 03:01:15;;;;;;;;;;;;;;;17.46;nan;102119.78;5045727;28;19974;-83
2023/05/29 03:03:40;;;;;;;;;;;;;;;17.45;nan;102127.09;5045935;28;20002;-85
2023/05/29 03:06:05;;;;;;;;;;;;;;;17.45;nan;102126.28;5044377;28;20586;-83
2023/05/29 03:08:31;;;;;;;;;;;;;;;17.46;nan;102125.22;5048179;28;20012;-84
2023/05/29 03:10:56;;;;;;;;;;;;;;;17.45;nan;102126.28;5046069;28;19978;-84
2023/05/29 03:13:22;;;;;;;;;;;;;;;17.46;nan;102127.94;5047250;28;19997;-83
2023/05/29 03:15:47;;;;;;;;;;;;;;;17.47;nan;102132.25;5046940;28;19920;-83
2023/05/29 03:18:12;;;;;;;;;;;;;;;17.47;nan;102134.97;5043192;28;20437;-84
2023/05/29 03:20:38;;;;;;;;;;;;;;;17.47;nan;102135.78;5046788;28;19920;-84
2023/05/29 03:23:03;;;;;;;;;;;;;;;17.47;nan;102132.25;5043468;28;19925;-83
2023/05/29 03:25:29;;;;;;;;;;;;;;;17.44;nan;102130.09;5044752;28;19940;-84
2023/05/29 03:27:55;;;;;;;;;;;;;;;17.43;nan;102125.75;5044804;28;19940;-84
2023/05/29 03:30:20;;;;;;;;;;;;;;;17.39;nan;102130.84;5045146;28;19924;-84
2023/05/29 03:32:46;;;;;;;;;;;;;;;17.38;nan;102128.38;5038752;28;19924;-83
2023/05/29 03:35:11;;;;;;;;;;;;;;;17.39;nan;102121.91;5043166;28;19920;-84
2023/05/29 03:37:36;;;;;;;;;;;;;;;17.36;nan;102122.41;5040916;28;20372;-83
2023/05/29 03:40:02;;;;;;;;;;;;;;;17.32;nan;102126.72;5041067;28;19921;-83
2023/05/29 03:42:30;;;;;;;;;;;;;;;17.29;nan;102132.66;5045325;28;20533;-84
2023/05/29 03:44:56;;;;;;;;;;;;;;;17.31;nan;102136.75;5044413;28;19920;-84
2023/05/29 03:47:21;;;;;;;;;;;;;;;17.34;nan;102138.13;5046473;28;20001;-83
2023/05/29 03:49:47;;;;;;;;;;;;;;;17.38;nan;102134.63;5040341;28;20026;-84
2023/05/29 03:52:12;;;;;;;;;;;;;;;17.43;nan;102131.97;5044883;28;19955;-84
2023/05/29 03:54:37;;;;;;;;;;;;;;;17.48;nan;102142.03;5045624;28;19953;-84
2023/05/29 03:57:02;;;;;;;;;;;;;;;17.52;nan;102143.13;5045359;28;20008;-83
2023/05/29 03:59:28;;;;;;;;;;;;;;;17.56;nan;102144.22;5044709;28;19921;-84
2023/05/29 04:01:53;;;;;;;;;;;;;;;17.62;nan;102148.63;5045530;28;20412;-84
2023/05/29 04:04:19;;;;;;;;;;;;;;;17.68;nan;102142.19;5041092;28;20072;-84
2023/05/29 04:06:44;;;;;;;;;;;;;;;17.72;nan;102148.72;5044502;28;20186;-84
2023/05/29 04:09:10;;;;;;;;;;;;;;;17.75;nan;102145.47;5045662;28;19927;-84
2023/05/29 04:11:35;;;;;;;;;;;;;;;17.80;nan;102147.41;5043806;28;20613;-84
2023/05/29 04:14:01;;;;;;;;;;;;;;;17.83;nan;102152.31;5044878;28;19924;-84
2023/05/29 04:16:28;;;;;;;;;;;;;;;17.85;nan;102152.03;5040142;28;19917;-83
2023/05/29 04:18:53;;;;;;;;;;;;;;;17.84;nan;102150.41;5045661;28;19921;-84
2023/05/29 04:21:18;;;;;;;;;;;;;;;17.83;nan;102155.03;5045274;28;19943;-83
2023/05/29 04:23:44;;;;;;;;;;;;;;;17.83;nan;102162.34;5045466;28;19920;-84
2023/05/29 04:26:10;;;;;;;;;;;;;;;17.78;nan;102165.84;5040506;28;20012;-84
2023/05/29 04:28:37;;;;;;;;;;;;;;;17.83;nan;102163.16;5045054;28;19947;-84
2023/05/29 04:31:02;;;;;;;;;;;;;;;17.91;nan;102161.84;5043349;28;19935;-83
2023/05/29 04:33:29;;;;;;;;;;;;;;;17.98;nan;102159.72;5044147;28;19921;-84
2023/05/29 04:35:54;;;;;;;;;;;;;;;18.08;nan;102151.63;5041685;28;19921;-84
2023/05/29 04:38:24;;;;;;;;;;;;;;;18.19;nan;102156.03;5044383;28;19926;-84
2023/05/29 04:40:50;;;;;;;;;;;;;;;18.27;nan;102160.09;5047276;28;19964;-83
2023/05/29 04:43:16;;;;;;;;;;;;;;;18.29;nan;102150.63;5043745;28;19995;-84
2023/05/29 04:45:42;;;;;;;;;;;;;;;18.33;nan;102151.75;5045630;28;19917;-84
2023/05/29 04:48:08;;;;;;;;;;;;;;;18.37;nan;102158.25;5048367;28;20369;-83
2023/05/29 04:50:35;;;;;;;;;;;;;;;18.41;nan;102163.97;5043045;28;19929;-83
2023/05/29 04:53:00;;;;;;;;;;;;;;;18.50;nan;102158.84;5045480;28;20316;-84
2023/05/29 04:55:26;;;;;;;;;;;;;;;18.58;nan;102153.72;5050881;28;19916;-84
2023/05/29 04:57:51;;;;;;;;;;;;;;;18.71;nan;102157.84;5043899;28;19986;-84
2023/05/29 05:00:17;;;;;;;;;;;;;;;18.86;nan;102152.44;5048069;28;20851;-84
2023/05/29 05:02:43;;;;;;;;;;;;;;;19.02;nan;102158.69;5045939;28;19921;-84
2023/05/29 05:05:09;;;;;;;;;;;;;;;19.15;nan;102154.63;5048953;28;19917;-84
2023/05/29 05:07:34;;;;;;;;;;;;;;;19.24;nan;102161.16;5050410;28;19943;-83
2023/05/29 05:10:00;;;;;;;;;;;;;;;19.32;nan;102155.16;5046285;28;20006;-84
2023/05/29 05:12:25;;;;;;;;;;;;;;;19.44;nan;102158.44;5047587;28;19939;-83
2023/05/29 05:14:50;;;;;;;;;;;;;;;19.56;nan;102161.69;5048354;28;20178;-84
2023/05/29 05:17:16;;;;;;;;;;;;;;;19.74;nan;102159.50;5048280;28;19921;-84
2023/05/29 05:19:42;;;;;;;;;;;;;;;19.91;nan;102168.16;5045173;28;20380;-83
2023/05/29 05:22:07;;;;;;;;;;;;;;;20.06;nan;102170.84;5045752;28;20461;-84
2023/05/29 05:24:34;;;;;;;;;;;;;;;20.18;nan;102165.09;5049751;28;20362;-84
2023/05/29 05:26:59;;;;;;;;;;;;;;;20.33;nan;102164.22;5045812;28;19916;-84
2023/05/29 05:29:25;;;;;;;;;;;;;;;20.41;nan;102161.75;5049251;28;20164;-83
2023/05/29 05:31:50;;;;;;;;;;;;;;;20.52;nan;102159.78;5045418;28;19920;-83
2023/05/29 05:34:15;;;;;;;;;;;;;;;20.64;nan;102162.16;5047645;28;20102;-84
2023/05/29 05:36:41;;;;;;;;;;;;;;;20.76;nan;102165.34;5045226;28;19924;-84
2023/05/29 05:39:06;;;;;;;;;;;;;;;20.84;nan;102161.25;5063534;28;19967;-83
2023/05/29 05:41:31;;;;;;;;;;;;;;;20.92;nan;102169.63;5040137;28;19920;-83
2023/05/29 05:43:57;;;;;;;;;;;;;;;21.04;nan;102164.63;5062865;28;20420;-84
2023/05/29 05:46:22;;;;;;;;;;;;;;;21.17;nan;102173.25;5044364;28;19921;-85
2023/05/29 05:48:47;;;;;;;;;;;;;;;21.31;nan;102168.78;5046026;28;20416;-84
2023/05/29 05:51:12;;;;;;;;;;;;;;;21.45;nan;102171.69;5042664;28;20443;-82
2023/05/29 05:53:38;;;;;;;;;;;;;;;21.58;nan;102171.03;5039088;28;20436;-83
2023/05/29 05:56:04;;;;;;;;;;;;;;;21.77;nan;102173.81;5043497;28;19916;-84
2023/05/29 05:58:29;;;;;;;;;;;;;;;21.97;nan;102179.06;5043364;28;19916;-84
2023/05/29 06:00:54;;;;;;;;;;;;;;;22.18;nan;102177.75;5044159;28;19955;-85
2023/05/29 06:03:20;;;;;;;;;;;;;;;22.41;nan;102183.47;5044414;28;19917;-84
2023/05/29 06:05:46;;;;;;;;;;;;;;;22.55;nan;102173.44;5038487;28;19918;-83
2023/05/29 06:08:12;;;;;;;;;;;;;;;22.72;nan;102181.13;5042804;28;20377;-84
2023/05/29 06:10:37;;;;;;;;;;;;;;;22.90;nan;102177.63;5042707;28;20082;-83
2023/05/29 06:13:02;;;;;;;;;;;;;;;22.99;nan;102180.50;5042124;28;19921;-84
2023/05/29 06:15:27;;;;;;;;;;;;;;;23.08;nan;102184.19;5042392;28;20248;-84
2023/05/29 06:17:55;;;;;;;;;;;;;;;23.23;nan;102183.13;5041480;28;19916;-85
2023/05/29 06:20:21;;;;;;;;;;;;;;;23.37;nan;102187.53;5041889;28;19939;-83
2023/05/29 06:22:50;;;;;;;;;;;;;;;23.50;nan;102194.13;5041894;28;20311;-84
2023/05/29 06:25:16;;;;;;;;;;;;;;;23.66;nan;102195.50;5044719;28;19963;-84
2023/05/29 06:27:41;;;;;;;;;;;;;;;23.74;nan;102192.09;5044409;28;19960;-83
2023/05/29 06:30:07;;;;;;;;;;;;;;;23.88;nan;102191.28;5044705;28;19925;-85
2023/05/29 06:32:32;;;;;;;;;;;;;;;24.00;nan;102191.59;5039277;28;20011;-84
2023/05/29 06:34:57;;;;;;;;;;;;;;;24.17;nan;102200.00;5041953;28;19995;-84
2023/05/29 06:37:23;;;;;;;;;;;;;;;24.31;nan;102194.56;5042955;28;20478;-84
2023/05/29 06:39:48;;;;;;;;;;;;;;;24.46;nan;102196.19;5044982;28;19925;-83
2023/05/29 06:42:13;;;;;;;;;;;;;;;24.61;nan;102193.09;5037987;28;19921;-83
2023/05/29 06:44:39;;;;;;;;;;;;;;;24.76;nan;102195.47;5044805;28;20178;-85
2023/05/29 06:47:05;;;;;;;;;;;;;;;24.84;nan;102202.19;5042562;28;19955;-83
2023/05/29 06:49:30;;;;;;;;;;;;;;;24.89;nan;102194.63;5042370;28;19971;-82
2023/05/29 06:51:56;;;;;;;;;;;;;;;24.99;nan;102199.91;5037061;28;19959;-83
2023/05/29 06:54:21;;;;;;;;;;;;;;;25.14;nan;102201.50;5039273;28;19952;-83
2023/05/29 06:56:46;;;;;;;;;;;;;;;25.23;nan;102204.28;5057167;28;20023;-83
2023/05/29 06:59:12;;;;;;;;;;;;;;;25.32;nan;102207.09;5039467;28;19921;-83
2023/05/29 07:01:37;;;;;;;;;;;;;;;25.42;nan;102199.41;5037790;28;19917;-82
2023/05/29 07:04:03;;;;;;;;;;;;;;;25.58;nan;102197.06;5041362;28;19928;-83
2023/05/29 07:06:28;;;;;;;;;;;;;;;25.76;nan;102198.00;5042589;28;20513;-83
2023/05/29 07:08:53;;;;;;;;;;;;;;;25.84;nan;102205.47;5037060;28;20288;-83
2023/05/29 07:11:19;;;;;;;;;;;;;;;25.97;nan;102203.75;5041720;28;20051;-84
2023/05/29 07:13:44;;;;;;;;;;;;;;;26.11;nan;102213.50;5042729;28;19920;-84
2023/05/29 07:16:09;;;;;;;;;;;;;;;26.28;nan;102210.00;5042071;28;20814;-85
2023/05/29 07:18:35;;;;;;;;;;;;;;;26.44;nan;102215.88;5057185;28;20349;-84
2023/05/29 07:21:00;;;;;;;;;;;;;;;26.54;nan;102212.00;5040835;28;19917;-85
2023/05/29 07:23:26;;;;;;;;;;;;;;;26.68;nan;102216.25;5045767;28;19940;-84
2023/05/29 07:25:51;;;;;;;;;;;;;;;26.73;nan;102207.81;5040800;28;20347;-84
2023/05/29 07:28:16;;;;;;;;;;;;;;;26.84;nan;102215.78;5037660;28;19921;-85
2023/05/29 07:30:42;;;;;;;;;;;;;;;26.93;nan;102209.16;5040277;28;19971;-85
2023/05/29 07:33:07;;;;;;;;;;;;;;;26.99;nan;102213.34;5041122;28;20459;-85
2023/05/29 07:35:33;;;;;;;;;;;;;;;27.09;nan;102228.72;5036422;28;20369;-85
2023/05/29 07:37:58;;;;;;;;;;;;;;;27.19;nan;102220.16;5040474;28;19920;-84
2023/05/29 07:40:24;;;;;;;;;;;;;;;27.32;nan;102208.19;5039392;28;20003;-84
2023/05/29 07:42:49;;;;;;;;;;;;;;;27.42;nan;102211.69;5037806;28;19943;-85
2023/05/29 07:45:14;;;;;;;;;;;;;;;27.54;nan;102209.91;5042760;28;19959;-84
2023/05/29 07:47:40;;;;;;;;;;;;;;;27.71;nan;102208.25;5035197;28;19952;-84
2023/05/29 07:50:06;;;;;;;;;;;;;;;27.80;nan;102218.09;5035112;28;20389;-84
2023/05/29 07:52:31;;;;;;;;;;;;;;;27.89;nan;102210.63;5040631;28;19947;-85
2023/05/29 07:54:57;;;;;;;;;;;;;;;28.04;nan;102219.47;5039670;28;19932;-85
2023/05/29 07:57:23;;;;;;;;;;;;;;;28.16;nan;102212.09;5042575;28;19923;-85
2023/05/29 07:59:51;;;;;;;;;;;;;;;28.28;nan;102212.25;5040575;28;19928;-85
2023/05/29 08:02:16;;;;;;;;;;;;;;;28.36;nan;102210.56;5038992;28;19964;-86
2023/05/29 08:04:42;;;;;;;;;;;;;;;28.42;nan;102211.19;5042015;28;19920;-86
2023/05/29 08:07:07;;;;;;;;;;;;;;;28.52;nan;102213.53;5042300;28;19921;-86
2023/05/29 08:09:33;;;;;;;;;;;;;;;28.63;nan;102213.97;5036843;28;20004;-85
2023/05/29 08:12:00;;;;;;;;;;;;;;;28.77;nan;102211.75;5039174;28;19924;-84
2023/05/29 08:14:26;;;;;;;;;;;;;;;28.85;nan;102219.13;5043932;28;19994;-85
2023/05/29 08:16:51;;;;;;;;;;;;;;;28.82;nan;102214.31;5042932;28;20009;-84
2023/05/29 08:19:16;;;;;;;;;;;;;;;28.87;nan;102219.63;5045669;28;20007;-85
2023/05/29 08:21:42;;;;;;;;;;;;;;;28.96;nan;102217.63;5048804;28;19925;-85
2023/05/29 08:24:08;;;;;;;;;;;;;;;29.08;nan;102223.19;5047638;28;19931;-84
2023/05/29 08:26:34;;;;;;;;;;;;;;;29.25;nan;102222.22;5041491;28;19925;-84
2023/05/29 08:28:59;;;;;;;;;;;;;;;29.35;nan;102218.22;5045178;28;20449;-84
2023/05/29 08:31:25;;;;;;;;;;;;;;;29.49;nan;102213.25;5048989;28;19944;-84
2023/05/29 08:33:51;;;;;;;;;;;;;;;29.62;nan;102214.88;5047833;28;20300;-84
2023/05/29 08:36:17;;;;;;;;;;;;;;;29.69;nan;102206.84;5043379;28;20327;-84
2023/05/29 08:38:42;;;;;;;;;;;;;;;29.85;nan;102206.97;5048677;28;20185;-85
2023/05/29 08:41:08;;;;;;;;;;;;;;;30.01;nan;102207.09;5046453;28;19920;-84
2023/05/29 08:43:34;;;;;;;;;;;;;;;30.10;nan;102202.28;5048406;28;20380;-83
2023/05/29 08:46:00;;;;;;;;;;;;;;;30.13;nan;102212.63;5050402;28;19939;-84
2023/05/29 08:48:26;;;;;;;;;;;;;;;30.17;nan;102205.28;5045326;28;19924;-85
2023/05/29 08:50:52;;;;;;;;;;;;;;;30.21;nan;102214.50;5047336;28;20008;-84
2023/05/29 08:53:18;;;;;;;;;;;;;;;30.19;nan;102211.28;5048504;28;19963;-83
2023/05/29 08:55:45;;;;;;;;;;;;;;;30.10;nan;102212.53;5051045;28;19921;-84
2023/05/29 08:58:11;;;;;;;;;;;;;;;29.85;nan;102211.69;5043874;28;19920;-84
2023/05/29 09:00:36;;;;;;;;;;;;;;;29.52;nan;102212.56;5045885;28;20149;-84
2023/05/29 09:03:03;;;;;;;;;;;;;;;29.24;nan;102215.09;5042152;28;19995;-85
2023/05/29 09:05:29;;;;;;;;;;;;;;;29.00;nan;102210.28;5041147;28;20019;-84
2023/05/29 09:07:55;;;;;;;;;;;;;;;28.93;nan;102210.03;5043825;28;20569;-84
2023/05/29 09:10:22;;;;;;;;;;;;;;;28.99;nan;102208.66;5042448;28;19995;-83
2023/05/29 09:12:49;;;;;;;;;;;;;;;29.06;nan;102208.91;5050751;28;19921;-85
2023/05/29 09:15:22;;;;;;;;;;;;;;;29.26;nan;102211.97;5051726;28;20367;-84
2023/05/29 09:17:51;;;;;;;;;;;;;;;29.55;nan;102219.34;5047962;28;19970;-85
2023/05/29 09:20:17;;;;;;;;;;;;;;;29.74;nan;102217.66;5050890;28;20380;-85
2023/05/29 09:22:51;;;;;;;;;;;;;;;29.91;nan;102221.34;5049308;28;19925;-84
2023/05/29 09:25:21;;;;;;;;;;;;;;;30.12;nan;102212.97;5049420;28;19982;-84
2023/05/29 09:27:46;;;;;;;;;;;;;;;30.24;nan;102211.03;5048458;28;19920;-82
2023/05/29 09:30:30;;;;;;;;;;;;;;;30.15;nan;102215.06;5047654;28;19954;-82
2023/05/29 09:32:55;;;;;;;;;;;;;;;30.13;nan;102206.31;5045109;28;20460;-82
2023/05/29 09:35:21;;;;;;;;;;;;;;;30.24;nan;102213.00;5047063;28;19917;-83
2023/05/29 09:37:46;;;;;;;;;;;;;;;30.33;nan;102216.41;5048569;28;19978;-85
2023/05/29 09:40:11;;;;;;;;;;;;;;;30.16;nan;102213.91;5048274;28;19964;-83
2023/05/29 09:42:37;;;;;;;;;;;;;;;29.93;nan;102222.63;5048782;28;19955;-82
2023/05/29 09:45:04;;;;;;;;;;;;;;;29.84;nan;102226.66;5048935;28;20064;-84
2023/05/29 09:47:32;;;;;;;;;;;;;;;29.72;nan;102231.00;5048438;28;20012;-82
2023/05/29 09:50:00;;;;;;;;;;;;;;;29.64;nan;102223.63;5044997;28;19979;-82
2023/05/29 09:52:26;;;;;;;;;;;;;;;29.65;nan;102241.03;5047378;28;19929;-84
2023/05/29 09:54:52;;;;;;;;;;;;;;;29.59;nan;102236.84;5048182;28;20384;-83
2023/05/29 09:57:17;;;;;;;;;;;;;;;29.61;nan;102224.31;5046771;28;19947;-83
2023/05/29 09:59:45;;;;;;;;;;;;;;;29.81;nan;102221.81;5042312;28;20012;-83
2023/05/29 10:02:12;;;;;;;;;;;;;;;29.90;nan;102226.06;5048834;28;20426;-84
2023/05/29 10:04:38;;;;;;;;;;;;;;;29.90;nan;102222.50;5046525;28;20004;-82
2023/05/29 10:07:22;;;;;;;;;;;;;;;29.96;nan;102223.88;5046673;28;20003;-83
2023/05/29 10:09:50;;;;;;;;;;;;;;;29.90;nan;102222.50;5047083;28;20018;-83
2023/05/29 10:12:20;;;;;;;;;;;;;;;29.94;nan;102220.66;5046924;28;19929;-83
2023/05/29 10:14:46;;;;;;;;;;;;;;;30.11;nan;102217.72;5047416;28;20153;-84
2023/05/29 10:17:13;;;;;;;;;;;;;;;30.33;nan;102217.22;5047428;28;20399;-84
2023/05/29 10:19:39;;;;;;;;;;;;;;;30.56;nan;102217.56;5047408;28;19917;-83
2023/05/29 10:22:05;;;;;;;;;;;;;;;30.76;nan;102213.03;5048930;28;20174;-84
2023/05/29 10:24:36;;;;;;;;;;;;;;;30.95;nan;102215.97;5047100;28;19924;-83
2023/05/29 10:27:02;;;;;;;;;;;;;;;30.96;nan;102219.53;5047169;28;20008;-85
2023/05/29 10:29:45;;;;;;;;;;;;;;;30.87;nan;102225.19;5045359;28;20761;-84
2023/05/29 10:32:29;;;;;;;;;;;;;;;30.71;nan;102226.31;5059769;28;19937;-84
2023/05/29 10:34:57;;;;;;;;;;;;;;;30.50;nan;102223.66;5047991;28;20479;-84
2023/05/29 10:37:26;;;;;;;;;;;;;;;30.42;nan;102211.59;5046342;28;19916;-83
2023/05/29 10:39:51;;;;;;;;;;;;;;;30.44;nan;102211.22;5045127;28;19917;-85
2023/05/29 10:42:35;;;;;;;;;;;;;;;30.40;nan;102213.09;5047658;28;20359;-84
2023/05/29 10:45:00;;;;;;;;;;;;;;;30.57;nan;102205.34;5047349;28;20046;-84
2023/05/29 10:47:26;;;;;;;;;;;;;;;30.87;nan;102213.31;5046339;28;20023;-84
2023/05/29 10:49:54;;;;;;;;;;;;;;;31.13;nan;102199.06;5046197;28;20066;-85
2023/05/29 10:52:20;;;;;;;;;;;;;;;31.26;nan;102198.66;5047616;28;19917;-83
2023/05/29 10:54:55;;;;;;;;;;;;;;;31.46;nan;102196.81;5045353;28;19935;-84
2023/05/29 10:57:21;;;;;;;;;;;;;;;31.67;nan;102185.47;5044969;28;19923;-83
2023/05/29 10:59:46;;;;;;;;;;;;;;;31.69;nan;102187.88;5046346;28;19928;-84
2023/05/29 11:02:17;;;;;;;;;;;;;;;31.73;nan;102188.81;5047011;28;19916;-85
2023/05/29 11:04:42;;;;;;;;;;;;;;;31.94;nan;102192.09;5044935;28;19920;-84
2023/05/29 11:07:27;;;;;;;;;;;;;;;32.09;nan;102191.28;5047578;28;19916;-85
2023/05/29 11:09:52;;;;;;;;;;;;;;;32.17;nan;102184.75;5045544;28;20421;-85
2023/05/29 11:12:32;;;;;;;;;;;;;;;32.26;nan;102180.94;5046732;28;20129;-82
2023/05/29 11:15:08;;;;;;;;;;;;;;;32.33;nan;102179.19;5046383;28;19974;-82
2023/05/29 11:17:39;;;;;;;;;;;;;;;32.40;nan;102182.09;5047077;28;19916;-83
2023/05/29 11:20:08;;;;;;;;;;;;;;;32.27;nan;102188.94;5045534;28;19916;-83
2023/05/29 11:22:43;;;;;;;;;;;;;;;32.42;nan;102187.28;5047317;28;19913;-84
2023/05/29 11:25:08;;;;;;;;;;;;;;;32.58;nan;102187.25;5044416;28;19920;-85
2023/05/29 11:27:34;;;;;;;;;;;;;;;32.67;nan;102194.16;5044197;28;20396;-84
2023/05/29 11:29:59;;;;;;;;;;;;;;;32.72;nan;102182.00;5045680;28;19929;-84
2023/05/29 11:32:27;;;;;;;;;;;;;;;32.76;nan;102191.19;5046559;28;20450;-84
2023/05/29 11:34:55;;;;;;;;;;;;;;;32.93;nan;102190.78;5046072;28;19920;-84
2023/05/29 11:37:22;;;;;;;;;;;;;;;33.10;nan;102183.97;5046718;28;19924;-84
2023/05/29 11:39:47;;;;;;;;;;;;;;;33.27;nan;102191.03;5046259;28;19970;-85
2023/05/29 11:42:13;;;;;;;;;;;;;;;33.40;nan;102192.50;5039435;28;20143;-84
2023/05/29 11:44:38;;;;;;;;;;;;;;;33.40;nan;102181.38;5038605;28;20007;-84
2023/05/29 11:47:05;;;;;;;;;;;;;;;33.39;nan;102190.06;5043837;28;19923;-84
2023/05/29 11:49:32;;;;;;;;;;;;;;;33.34;nan;102185.63;5042749;28;19917;-85
2023/05/29 11:52:16;;;;;;;;;;;;;;;33.28;nan;102196.22;5041183;28;19925;-85
2023/05/29 11:54:46;;;;;;;;;;;;;;;33.13;nan;102190.75;5041320;28;20563;-84
2023/05/29 11:57:17;;;;;;;;;;;;;;;32.97;nan;102196.38;5039120;28;20383;-85
2023/05/29 11:59:42;;;;;;;;;;;;;;;32.83;nan;102193.31;5034818;28;19928;-84
2023/05/29 12:02:08;;;;;;;;;;;;;;;32.81;nan;102188.13;5036047;28;19925;-84
2023/05/29 12:04:33;;;;;;;;;;;;;;;32.89;nan;102183.56;5039182;28;19921;-86
2023/05/29 12:06:58;;;;;;;;;;;;;;;33.11;nan;102182.00;5040596;28;19921;-85
2023/05/29 12:09:28;;;;;;;;;;;;;;;33.31;nan;102178.78;5038404;28;19925;-85
2023/05/29 12:11:54;;;;;;;;;;;;;;;33.53;nan;102179.19;5038733;28;20551;-86
2023/05/29 12:14:20;;;;;;;;;;;;;;;33.65;nan;102167.91;5035563;28;19929;-85
2023/05/29 12:16:45;;;;;;;;;;;;;;;33.64;nan;102180.19;5033323;28;19932;-85
2023/05/29 12:19:10;;;;;;;;;;;;;;;33.30;nan;102179.16;5035721;28;19924;-86
2023/05/29 12:21:40;;;;;;;;;;;;;;;32.99;nan;102177.38;5040176;28;19920;-85
2023/05/29 12:24:06;;;;;;;;;;;;;;;32.85;nan;102179.88;5035076;28;20812;-85
2023/05/29 12:26:32;;;;;;;;;;;;;;;32.81;nan;102177.03;5035642;28;19928;-85
2023/05/29 12:28:57;;;;;;;;;;;;;;;32.80;nan;102174.59;5033906;28;19948;-85
2023/05/29 12:31:29;;;;;;;;;;;;;;;32.91;nan;102181.22;5032686;28;20058;-87
2023/05/29 12:33:59;;;;;;;;;;;;;;;33.11;nan;102182.00;5037737;28;20388;-86
2023/05/29 12:36:26;;;;;;;;;;;;;;;33.22;nan;102177.44;5036201;28;20300;-85
2023/05/29 12:38:51;;;;;;;;;;;;;;;33.37;nan;102181.28;5034673;28;20339;-86
2023/05/29 12:41:27;;;;;;;;;;;;;;;33.43;nan;102174.28;5033517;28;19929;-85
2023/05/29 12:43:56;;;;;;;;;;;;;;;33.33;nan;102170.13;5035500;28;19963;-85
2023/05/29 12:46:22;;;;;;;;;;;;;;;33.22;nan;102166.34;5037182;28;20428;-85
2023/05/29 12:48:49;;;;;;;;;;;;;;;33.15;nan;102174.53;5042010;28;19999;-86
2023/05/29 12:51:14;;;;;;;;;;;;;;;32.93;nan;102178.88;5040146;28;20359;-85
2023/05/29 12:53:40;;;;;;;;;;;;;;;32.73;nan;102173.28;5035509;28;19925;-83